Time;durP1;ratioP1;P1;durP2;ratioP2;P2;SDS_P1;SDS_P2;PMS_P1;PMS_P2;Temp;Humidity;BMP_temperature;BMP_pressure;BME280_temperature;BME280_humidity;BME280_pressure;Samples;Min_cycle;Max_cycle;Signal;HPM_P1;HPM_P2
2023/01/19 00:01:12;;;;;;;16.20;8.00;;;;;;;-1.86;100.00;94291.06;5048295;28;20262;-79
2023/01/19 00:03:37;;;;;;;18.75;8.55;;;;;;;-1.98;100.00;94283.31;5053989;28;20045;-78
2023/01/19 00:06:05;;;;;;;21.95;8.35;;;;;;;-1.95;100.00;94288.81;5050856;28;20518;-78
2023/01/19 00:08:31;;;;;;;18.95;7.72;;;;;;;-1.94;100.00;94294.72;5055008;28;20037;-78
2023/01/19 00:10:56;;;;;;;20.17;9.43;;;;;;;-1.86;100.00;94302.16;5048548;28;20037;-79
2023/01/19 00:13:22;;;;;;;19.38;8.48;;;;;;;-1.84;100.00;94300.16;5043597;28;20041;-78
2023/01/19 00:15:47;;;;;;;16.95;8.50;;;;;;;-1.85;100.00;94308.09;5053671;28;20044;-77
2023/01/19 00:18:13;;;;;;;24.75;9.05;;;;;;;-1.83;100.00;94317.19;5053295;28;20502;-77
2023/01/19 00:20:39;;;;;;;20.45;8.63;;;;;;;-1.85;100.00;94313.25;5053303;28;20402;-78
2023/01/19 00:23:06;;;;;;;19.73;9.32;;;;;;;-1.97;100.00;94316.63;5053987;28;20654;-78
2023/01/19 00:25:33;;;;;;;21.02;8.60;;;;;;;-1.84;100.00;94327.72;5051565;28;20036;-78
2023/01/19 00:27:58;;;;;;;17.85;8.52;;;;;;;-1.87;100.00;94320.44;5051747;28;20059;-77
2023/01/19 00:30:24;;;;;;;19.50;8.43;;;;;;;-1.84;100.00;94320.00;5046853;28;20045;-77
2023/01/19 00:32:50;;;;;;;14.18;7.15;;;;;;;-1.94;100.00;94323.91;5049440;28;20033;-77
2023/01/19 00:35:16;;;;;;;16.70;8.05;;;;;;;-1.90;100.00;94320.88;5052306;28;20533;-76
2023/01/19 00:37:44;;;;;;;16.25;8.50;;;;;;;-2.05;100.00;94319.50;5045573;28;20042;-78
2023/01/19 00:40:12;;;;;;;23.77;8.75;;;;;;;-1.99;100.00;94331.50;5048480;28;20037;-77
2023/01/19 00:42:43;;;;;;;20.40;7.68;;;;;;;-1.94;100.00;94336.78;5052432;28;20091;-77
2023/01/19 00:45:18;;;;;;;17.05;8.80;;;;;;;-1.87;100.00;94336.69;5052012;28;20107;-77
2023/01/19 00:47:44;;;;;;;21.40;9.13;;;;;;;-1.92;100.00;94337.34;5052382;28;20231;-78
2023/01/19 00:50:11;;;;;;;17.40;8.80;;;;;;;-2.05;100.00;94334.16;5055058;28;20040;-78
2023/01/19 00:52:40;;;;;;;17.92;8.52;;;;;;;-1.99;100.00;94333.28;5053837;28;20226;-78
2023/01/19 00:55:08;;;;;;;20.13;8.65;;;;;;;-1.99;100.00;94333.28;5053824;28;20106;-78
2023/01/19 00:57:34;;;;;;;18.92;7.75;;;;;;;-2.00;100.00;94337.66;5053636;28;20041;-77
2023/01/19 01:00:00;;;;;;;19.85;7.78;;;;;;;-2.05;100.00;94340.13;5054376;28;20120;-77
2023/01/19 01:02:26;;;;;;;15.63;8.18;;;;;;;-2.03;100.00;94338.09;5048955;28;20033;-77
2023/01/19 01:04:53;;;;;;;15.77;8.48;;;;;;;-2.02;100.00;94338.91;5053994;28;20048;-77
2023/01/19 01:07:23;;;;;;;17.60;8.25;;;;;;;-1.98;100.00;94340.03;5052866;28;20116;-77
2023/01/19 01:09:50;;;;;;;19.40;8.30;;;;;;;-2.10;100.00;94338.19;5052130;28;20033;-77
2023/01/19 01:12:15;;;;;;;17.05;7.90;;;;;;;-1.98;100.00;94345.97;5051809;28;20446;-78
2023/01/19 01:14:41;;;;;;;16.27;8.10;;;;;;;-2.01;100.00;94346.41;5052243;28;20060;-77
2023/01/19 01:17:10;;;;;;;17.58;8.52;;;;;;;-2.11;100.00;94351.31;5053075;28;20487;-77
2023/01/19 01:19:37;;;;;;;19.10;7.72;;;;;;;-2.15;100.00;94355.31;5052955;28;20043;-77
2023/01/19 01:22:03;;;;;;;17.55;8.38;;;;;;;-2.11;100.00;94351.31;5052959;28;20045;-77
2023/01/19 01:24:28;;;;;;;24.48;8.65;;;;;;;-2.07;100.00;94362.72;5053640;28;20036;-78
2023/01/19 01:26:54;;;;;;;13.68;7.20;;;;;;;-2.01;100.00;94356.72;5051795;28;20048;-78
2023/01/19 01:29:20;;;;;;;15.73;7.35;;;;;;;-2.15;100.00;94360.47;5052424;28;20066;-77
2023/01/19 01:31:45;;;;;;;15.10;7.65;;;;;;;-2.10;100.00;94363.19;5052544;28;20032;-77
2023/01/19 01:34:11;;;;;;;12.70;6.88;;;;;;;-2.25;100.00;94365.38;5053257;28;20037;-78
2023/01/19 01:36:36;;;;;;;19.85;7.80;;;;;;;-2.20;100.00;94373.22;5052693;28;20041;-77
2023/01/19 01:39:02;;;;;;;17.25;8.18;;;;;;;-2.09;100.00;94369.91;5052310;28;20041;-78
2023/01/19 01:41:28;;;;;;;12.50;6.63;;;;;;;-2.08;100.00;94374.06;5053771;28;20037;-78
2023/01/19 01:44:00;;;;;;;16.02;7.93;;;;;;;-2.06;100.00;94381.59;5049141;28;20052;-77
2023/01/19 01:46:29;;;;;;;16.80;8.23;;;;;;;-2.12;100.00;94390.97;5050336;28;20036;-77
2023/01/19 01:49:14;;;;;;;17.40;7.30;;;;;;;-2.08;100.00;94376.66;5047167;28;20067;-77
2023/01/19 01:51:45;;;;;;;18.55;7.22;;;;;;;-2.09;100.00;94381.00;5049948;28;20045;-77
2023/01/19 01:54:29;;;;;;;16.55;7.43;;;;;;;-2.28;100.00;94382.81;5052888;28;20495;-78
2023/01/19 01:57:01;;;;;;;14.93;7.30;;;;;;;-2.32;100.00;94389.41;5051740;28;20059;-78
2023/01/19 01:59:33;;;;;;;20.55;7.88;;;;;;;-2.33;100.00;94398.16;5053691;28;20065;-78
2023/01/19 02:04:58;;;;;;;13.40;6.63;;;;;;;-2.36;100.00;94385.69;5052266;28;20071;-78
2023/01/19 02:13:21;;;;;;;19.05;8.00;;;;;;;-2.33;100.00;94389.63;5048674;28;20032;-77
2023/01/19 02:15:59;;;;;;;15.35;7.45;;;;;;;-2.25;100.00;94386.75;5053486;28;20610;-78
2023/01/19 02:18:28;;;;;;;11.88;6.40;;;;;;;-2.31;100.00;94393.56;5051707;28;20402;-78
2023/01/19 02:21:11;;;;;;;17.27;7.65;;;;;;;-2.30;100.00;94395.16;5044353;28;20146;-79
2023/01/19 02:23:43;;;;;;;16.85;7.32;;;;;;;-2.23;100.00;94394.28;5052556;28;20037;-79
2023/01/19 02:26:11;;;;;;;15.57;7.25;;;;;;;-2.41;100.00;94393.28;5045841;28;20071;-77
2023/01/19 02:28:40;;;;;;;16.92;7.40;;;;;;;-2.45;100.00;94397.28;5053483;28;20553;-78
2023/01/19 02:31:06;;;;;;;14.82;5.88;;;;;;;-2.41;100.00;94398.44;5044952;28;20096;-79
2023/01/19 02:33:32;;;;;;;13.63;5.88;;;;;;;-2.56;100.00;94400.59;5053329;28;20121;-78
2023/01/19 02:35:59;;;;;;;11.38;5.90;;;;;;;-2.46;100.00;94411.16;5038489;28;20483;-80
2023/01/19 02:38:27;;;;;;;11.85;5.60;;;;;;;-2.49;100.00;94406.44;5052865;28;20094;-79
2023/01/19 02:40:59;;;;;;;9.73;4.85;;;;;;;-2.64;100.00;94410.16;5046213;28;20103;-78
2023/01/19 02:43:26;;;;;;;8.70;4.55;;;;;;;-2.63;100.00;94410.94;5040392;28;20041;-79
2023/01/19 02:45:51;;;;;;;9.45;5.00;;;;;;;-2.55;100.00;94412.47;5050187;28;20115;-78
2023/01/19 02:48:19;;;;;;;16.23;4.90;;;;;;;-2.53;100.00;94415.59;5050667;28;20538;-78
2023/01/19 02:50:50;;;;;;;9.85;5.35;;;;;;;-2.53;100.00;94424.13;5047939;28;20071;-79
2023/01/19 02:53:46;;;;;;;9.77;5.05;;;;;;;-2.63;100.00;94416.09;5049630;28;20041;-78
2023/01/19 02:56:14;;;;;;;8.15;4.30;;;;;;;-2.45;100.00;94423.06;5050209;28;20037;-79
2023/01/19 02:59:12;;;;;;;11.35;4.72;;;;;;;-2.59;100.00;94421.63;5051312;28;20041;-78
2023/01/19 03:01:58;;;;;;;11.43;5.13;;;;;;;-2.59;100.00;94421.63;5036202;28;20125;-79
2023/01/19 03:04:30;;;;;;;11.50;4.95;;;;;;;-2.61;100.00;94425.19;5046103;28;20049;-79
2023/01/19 03:07:12;;;;;;;12.73;5.00;;;;;;;-2.63;100.00;94421.25;5038329;28;20056;-78
2023/01/19 03:09:51;;;;;;;9.75;5.10;;;;;;;-2.67;100.00;94420.91;5049679;28;20040;-78
2023/01/19 03:12:23;;;;;;;10.68;5.03;;;;;;;-2.49;100.00;94411.59;5042079;28;20037;-79
2023/01/19 03:14:54;;;;;;;9.20;4.93;;;;;;;-2.59;100.00;94411.31;5042293;28;20044;-79
2023/01/19 03:17:21;;;;;;;6.88;4.10;;;;;;;-2.55;100.00;94412.47;5041787;28;20048;-79
2023/01/19 03:19:49;;;;;;;12.73;5.28;;;;;;;-2.66;100.00;94412.19;5042830;28;20119;-79
2023/01/19 03:22:27;;;;;;;12.68;5.60;;;;;;;-2.65;100.00;94408.59;5040228;28;20144;-79
2023/01/19 03:24:57;;;;;;;13.10;5.32;;;;;;;-2.73;100.00;94408.88;5041581;28;20041;-79
2023/01/19 03:27:27;;;;;;;10.88;5.15;;;;;;;-2.67;100.00;94410.59;5044370;28;20099;-78
2023/01/19 03:30:00;;;;;;;13.48;6.13;;;;;;;-2.78;100.00;94403.56;5040832;28;20037;-78
2023/01/19 03:32:34;;;;;;;12.10;5.55;;;;;;;-2.81;100.00;94415.06;5048214;28;20048;-76
2023/01/19 03:35:05;;;;;;;12.18;5.90;;;;;;;-2.79;100.00;94417.44;5048741;28;20407;-77
2023/01/19 03:37:33;;;;;;;13.70;6.43;;;;;;;-2.72;100.00;94415.59;5046167;28;20040;-77
2023/01/19 03:39:59;;;;;;;11.68;5.93;;;;;;;-2.73;100.00;94415.81;5044499;28;20520;-76
2023/01/19 03:42:27;;;;;;;14.70;6.75;;;;;;;-2.80;100.00;94411.50;5044198;28;20045;-77
2023/01/19 03:44:55;;;;;;;20.45;7.85;;;;;;;-2.88;100.00;94416.16;5042467;28;20094;-77
2023/01/19 03:47:22;;;;;;;14.75;6.93;;;;;;;-2.83;100.00;94416.28;5045678;28;20584;-77
2023/01/19 03:49:50;;;;;;;20.02;7.15;;;;;;;-2.87;100.00;94417.72;5040809;28;20560;-78
2023/01/19 03:52:15;;;;;;;14.88;7.03;;;;;;;-2.86;100.00;94419.28;5042152;28;20412;-76
2023/01/19 03:54:42;;;;;;;13.30;6.53;;;;;;;-2.92;100.00;94422.72;5043109;28;20075;-77
2023/01/19 03:57:07;;;;;;;15.82;7.68;;;;;;;-3.06;100.00;94435.72;5045834;28;20048;-78
2023/01/19 03:59:33;;;;;;;12.05;6.93;;;;;;;-3.01;100.00;94438.41;5047877;28;20087;-76
2023/01/19 04:01:59;;;;;;;19.65;7.95;;;;;;;-3.14;100.00;94431.59;5047400;28;20041;-76
2023/01/19 04:04:24;;;;;;;12.27;7.20;;;;;;;-3.10;100.00;94431.97;5037958;28;20494;-76
2023/01/19 04:06:50;;;;;;;17.20;7.45;;;;;;;-3.12;100.00;94433.94;5047759;28;20037;-76
2023/01/19 04:09:16;;;;;;;15.88;7.57;;;;;;;-3.17;100.00;94432.00;5046355;28;20064;-76
2023/01/19 04:11:41;;;;;;;14.55;7.55;;;;;;;-3.26;100.00;94430.72;5044622;28;20047;-76
2023/01/19 04:14:07;;;;;;;13.07;7.07;;;;;;;-3.12;100.00;94431.38;5042101;28;20667;-76
2023/01/19 04:16:32;;;;;;;15.27;7.30;;;;;;;-3.14;100.00;94430.81;5047918;28;20041;-76
2023/01/19 04:18:58;;;;;;;17.48;8.13;;;;;;;-3.25;100.00;94428.91;5050784;28;20071;-76
2023/01/19 04:21:23;;;;;;;14.10;7.05;;;;;;;-3.16;100.00;94432.78;5048138;28;20045;-75
2023/01/19 04:23:49;;;;;;;18.50;8.27;;;;;;;-3.23;100.00;94426.91;5042456;28;20059;-76
2023/01/19 04:26:15;;;;;;;16.05;7.85;;;;;;;-3.29;100.00;94427.75;5044617;28;20033;-75
2023/01/19 04:28:41;;;;;;;18.67;9.35;;;;;;;-3.26;100.00;94422.19;5051008;28;20037;-75
2023/01/19 04:31:07;;;;;;;21.70;8.40;;;;;;;-3.23;100.00;94426.91;5048057;28;20037;-74
2023/01/19 04:33:33;;;;;;;21.25;8.80;;;;;;;-3.24;100.00;94430.50;5045225;28;20044;-74
2023/01/19 04:35:59;;;;;;;26.27;8.35;;;;;;;-3.23;100.00;94426.91;5049669;28;20505;-73
2023/01/19 04:38:25;;;;;;;20.83;7.43;;;;;;;-3.25;100.00;94434.06;5048398;28;20122;-74
2023/01/19 04:40:52;;;;;;;17.25;8.73;;;;;;;-3.23;100.00;94435.44;5050178;28;20116;-73
2023/01/19 04:43:19;;;;;;;15.02;7.65;;;;;;;-3.37;100.00;94437.31;5042320;28;20134;-73
2023/01/19 04:45:45;;;;;;;17.73;8.07;;;;;;;-3.43;100.00;94433.00;5045057;28;20044;-73
2023/01/19 04:48:12;;;;;;;21.98;8.98;;;;;;;-3.49;100.00;94429.47;5042360;28;20036;-73
2023/01/19 04:50:38;;;;;;;14.57;7.53;;;;;;;-3.46;100.00;94433.41;5049318;28;20044;-73
2023/01/19 04:53:04;;;;;;;22.02;8.85;;;;;;;-3.56;100.00;94433.06;5040359;28;20041;-73
2023/01/19 04:55:30;;;;;;;17.85;8.35;;;;;;;-3.56;100.00;94438.22;5044188;28;20483;-74
2023/01/19 04:57:55;;;;;;;17.73;8.30;;;;;;;-3.58;100.00;94440.22;5049263;28;20422;-73
2023/01/19 05:00:22;;;;;;;17.42;8.15;;;;;;;-3.66;100.00;94438.69;5045300;28;20041;-73
2023/01/19 05:02:48;;;;;;;25.67;9.45;;;;;;;-3.72;100.00;94440.28;5042638;28;20037;-73
2023/01/19 05:05:14;;;;;;;18.58;9.05;;;;;;;-3.77;100.00;94440.13;5041496;28;20942;-73
2023/01/19 05:07:41;;;;;;;18.63;9.25;;;;;;;-3.77;100.00;94447.81;5043057;28;20076;-73
2023/01/19 05:10:07;;;;;;;21.73;9.82;;;;;;;-3.80;100.00;94440.53;5041866;28;20061;-73
2023/01/19 05:12:33;;;;;;;22.30;9.25;;;;;;;-3.86;100.00;94443.94;5040562;28;20036;-73
2023/01/19 05:14:58;;;;;;;16.50;8.82;;;;;;;-4.11;100.00;94447.19;5043178;28;20040;-73
2023/01/19 05:17:24;;;;;;;20.40;9.05;;;;;;;-4.06;100.00;94449.94;5046949;28;20511;-74
2023/01/19 05:19:49;;;;;;;16.75;8.35;;;;;;;-4.09;100.00;94454.72;5049683;28;20683;-74
2023/01/19 05:22:15;;;;;;;16.92;8.23;;;;;;;-4.11;100.00;94456.69;5044946;28;20480;-74
2023/01/19 05:24:41;;;;;;;18.33;9.23;;;;;;;-4.08;100.00;94463.97;5048218;28;20491;-73
2023/01/19 05:27:07;;;;;;;18.58;8.85;;;;;;;-3.92;100.00;94460.16;5046549;28;20458;-74
2023/01/19 05:29:33;;;;;;;22.60;8.48;;;;;;;-3.87;100.00;94465.47;5042232;28;20033;-74
2023/01/19 05:31:59;;;;;;;20.20;10.15;;;;;;;-3.91;100.00;94472.03;5043823;28;20419;-73
2023/01/19 05:34:25;;;;;;;18.50;9.93;;;;;;;-3.91;100.00;94466.88;5042586;28;20120;-73
2023/01/19 05:36:51;;;;;;;26.63;10.60;;;;;;;-3.95;100.00;94465.69;5045621;28;20585;-74
2023/01/19 05:39:16;;;;;;;23.08;10.95;;;;;;;-4.00;100.00;94469.66;5050449;28;20064;-74
2023/01/19 05:41:44;;;;;;;22.67;10.05;;;;;;;-4.03;100.00;94474.44;5043449;28;20131;-74
2023/01/19 05:44:10;;;;;;;18.77;9.57;;;;;;;-4.09;100.00;94470.13;5039084;28;20528;-74
2023/01/19 05:46:36;;;;;;;18.83;9.02;;;;;;;-4.11;100.00;94475.44;5044026;28;20040;-73
2023/01/19 05:49:03;;;;;;;19.27;9.57;;;;;;;-4.23;100.00;94474.50;5046245;28;20491;-74
2023/01/19 05:51:34;;;;;;;26.27;9.85;;;;;;;-4.26;100.00;94480.06;5044865;28;20453;-73
2023/01/19 05:54:04;;;;;;;24.60;9.85;;;;;;;-4.27;100.00;94489.53;5049095;28;20570;-74
2023/01/19 05:56:29;;;;;;;18.70;9.05;;;;;;;-4.30;100.00;94486.59;5052980;28;20044;-73
2023/01/19 05:58:55;;;;;;;22.90;10.18;;;;;;;-4.26;100.00;94490.34;5049161;28;20414;-75
2023/01/19 06:01:21;;;;;;;20.67;9.65;;;;;;;-4.20;100.00;94497.22;5044729;28;20041;-73
2023/01/19 06:03:47;;;;;;;16.13;8.55;;;;;;;-4.19;100.00;94491.09;5043614;28;20479;-74
2023/01/19 06:06:14;;;;;;;23.15;10.45;;;;;;;-4.17;100.00;94507.09;5043855;28;20469;-73
2023/01/19 06:08:40;;;;;;;25.25;11.02;;;;;;;-4.13;100.00;94502.34;5045121;28;20046;-73
2023/01/19 06:11:06;;;;;;;20.58;9.65;;;;;;;-4.07;100.00;94504.88;5041679;28;20498;-74
2023/01/19 06:13:32;;;;;;;20.58;8.98;;;;;;;-3.97;100.00;94513.97;5040658;28;20038;-73
2023/01/19 06:15:58;;;;;;;18.33;9.40;;;;;;;-4.02;100.00;94507.66;5048768;28;20053;-73
2023/01/19 06:18:24;;;;;;;22.20;10.50;;;;;;;-4.08;100.00;94513.59;5040462;28;20045;-74
2023/01/19 06:20:51;;;;;;;20.23;9.77;;;;;;;-4.05;100.00;94517.53;5044231;28;20506;-74
2023/01/19 06:23:16;;;;;;;22.90;10.88;;;;;;;-4.11;100.00;94513.97;5046044;28;20036;-73
2023/01/19 06:25:42;;;;;;;28.05;10.07;;;;;;;-4.13;100.00;94510.84;5049236;28;20465;-74
2023/01/19 06:28:08;;;;;;;24.35;11.63;;;;;;;-4.03;100.00;94511.19;5041934;28;20044;-74
2023/01/19 06:30:33;;;;;;;21.33;10.18;;;;;;;-3.93;100.00;94515.13;5040606;28;20118;-73
2023/01/19 06:32:59;;;;;;;24.90;10.68;;;;;;;-3.90;100.00;94519.88;5045486;28;20390;-73
2023/01/19 06:35:24;;;;;;;20.70;10.77;;;;;;;-3.96;100.00;94520.69;5049593;28;20491;-74
2023/01/19 06:37:51;;;;;;;24.55;11.15;;;;;;;-3.98;100.00;94517.53;5045383;28;20041;-74
2023/01/19 06:40:17;;;;;;;25.30;10.70;;;;;;;-4.03;100.00;94516.34;5044688;28;20041;-73
2023/01/19 06:42:42;;;;;;;25.13;10.93;;;;;;;-4.08;100.00;94518.75;5034864;28;20041;-73
2023/01/19 06:45:09;;;;;;;27.45;11.27;;;;;;;-4.04;100.00;94517.34;5042877;28;20038;-74
2023/01/19 06:47:34;;;;;;;31.27;11.15;;;;;;;-4.04;100.00;94530.19;5036453;28;20526;-75
2023/01/19 06:50:02;;;;;;;24.80;10.65;;;;;;;-4.06;100.00;94527.03;5045891;28;20072;-72
2023/01/19 06:52:27;;;;;;;23.45;11.05;;;;;;;-4.07;100.00;94538.28;5041856;28;20567;-75
2023/01/19 06:54:53;;;;;;;21.40;10.45;;;;;;;-4.03;100.00;94536.91;5050021;28;20041;-76
2023/01/19 06:57:18;;;;;;;27.27;11.70;;;;;;;-4.03;100.00;94531.75;5047215;28;20738;-76
2023/01/19 06:59:44;;;;;;;26.13;11.65;;;;;;;-4.08;100.00;94539.31;5041446;28;20049;-76
2023/01/19 07:02:17;;;;;;;25.95;12.32;;;;;;;-4.06;100.00;94537.31;5039568;28;20048;-73
2023/01/19 07:04:42;;;;;;;27.40;10.88;;;;;;;-4.06;100.00;94542.44;5041712;28;20495;-73
2023/01/19 07:07:08;;;;;;;25.92;11.30;;;;;;;-4.07;100.00;94540.88;5043639;28;20048;-76
2023/01/19 07:09:33;;;;;;;22.60;10.90;;;;;;;-4.05;100.00;94548.38;5042673;28;20041;-76
2023/01/19 07:11:59;;;;;;;24.35;11.18;;;;;;;-4.01;100.00;94554.69;5045464;28;20040;-74
2023/01/19 07:14:29;;;;;;;23.98;11.57;;;;;;;-4.01;100.00;94554.69;5038284;28;20392;-74
2023/01/19 07:16:55;;;;;;;21.38;9.85;;;;;;;-3.95;100.00;94558.22;5049449;28;20491;-73
2023/01/19 07:19:20;;;;;;;25.23;11.30;;;;;;;-3.97;100.00;94557.66;5049158;28;20050;-74
2023/01/19 07:21:46;;;;;;;22.90;10.07;;;;;;;-3.89;100.00;94562.59;5044495;28;20041;-73
2023/01/19 07:24:11;;;;;;;23.92;11.70;;;;;;;-3.91;100.00;94564.56;5038459;28;20109;-75
2023/01/19 07:26:37;;;;;;;22.20;9.93;;;;;;;-3.83;100.00;94572.06;5048139;28;20033;-74
2023/01/19 07:29:02;;;;;;;26.92;9.80;;;;;;;-3.83;100.00;94564.34;5045498;28;20103;-74
2023/01/19 07:31:28;;;;;;;20.15;10.43;;;;;;;-3.86;100.00;94567.31;5043188;28;20447;-75
2023/01/19 07:33:53;;;;;;;17.80;9.15;;;;;;;-3.75;100.00;94568.47;5045400;28;20080;-74
2023/01/19 07:36:19;;;;;;;25.55;10.50;;;;;;;-3.76;100.00;94567.69;5040565;28;20056;-74
2023/01/19 07:38:45;;;;;;;24.05;9.55;;;;;;;-3.85;100.00;94568.88;5046890;28;20036;-73
2023/01/19 07:41:10;;;;;;;20.17;10.20;;;;;;;-3.70;100.00;94572.00;5043533;28;21233;-73
2023/01/19 07:43:36;;;;;;;18.52;8.82;;;;;;;-3.67;100.00;94581.88;5044526;28;20038;-72
2023/01/19 07:46:03;;;;;;;20.98;9.98;;;;;;;-3.77;100.00;94581.53;5047769;28;20037;-73
2023/01/19 07:48:29;;;;;;;17.67;9.57;;;;;;;-3.73;100.00;94587.84;5045302;28;20092;-72
2023/01/19 07:51:07;;;;;;;24.80;9.95;;;;;;;-3.73;100.00;94595.56;5051596;28;20045;-73
2023/01/19 07:53:33;;;;;;;21.83;9.32;;;;;;;-3.69;100.00;94596.72;5054625;28;20029;-73
2023/01/19 07:55:58;;;;;;;18.10;8.95;;;;;;;-3.66;100.00;94598.13;5051445;28;20167;-75
2023/01/19 07:58:25;;;;;;;21.02;9.57;;;;;;;-3.74;100.00;94590.63;5051351;28;20045;-77
2023/01/19 08:00:51;;;;;;;21.45;10.20;;;;;;;-3.70;100.00;94602.84;5049943;28;20057;-76
2023/01/19 08:03:17;;;;;;;21.90;9.90;;;;;;;-3.60;100.00;94591.38;5047415;28;20045;-75
2023/01/19 08:05:44;;;;;;;16.35;8.40;;;;;;;-3.55;100.00;94600.06;5045733;28;20043;-75
2023/01/19 08:08:11;;;;;;;20.48;8.77;;;;;;;-3.59;100.00;94598.06;5047686;28;20044;-75
2023/01/19 08:10:37;;;;;;;25.60;9.02;;;;;;;-3.57;100.00;94601.25;5057969;28;20024;-70
2023/01/19 08:13:02;;;;;;;19.92;9.52;;;;;;;-3.52;100.00;94601.41;5074804;28;20084;-73
2023/01/19 08:15:41;;;;;;;16.67;8.40;;;;;;;-3.42;100.00;94606.94;5069090;28;20029;-73
2023/01/19 08:18:08;;;;;;;16.55;8.73;;;;;;;-3.38;100.00;94615.81;5074574;28;20021;-72
2023/01/19 08:20:34;;;;;;;17.70;8.55;;;;;;;-3.32;100.00;94615.00;5079734;28;20041;-71
2023/01/19 08:23:01;;;;;;;14.68;7.40;;;;;;;-3.24;100.00;94623.50;5075606;28;20085;-73
2023/01/19 08:25:41;;;;;;;20.10;9.30;;;;;;;-3.33;100.00;94622.94;5072439;28;20077;-75
2023/01/19 08:28:10;;;;;;;19.52;8.93;;;;;;;-3.22;100.00;94630.03;5080804;28;20037;-71
2023/01/19 08:30:37;;;;;;;22.02;9.05;;;;;;;-3.29;100.00;94628.44;5076959;28;20056;-70
2023/01/19 08:33:03;;;;;;;18.42;8.52;;;;;;;-3.23;100.00;94632.78;5068029;28;20025;-72
2023/01/19 08:35:30;;;;;;;21.75;8.65;;;;;;;-3.22;100.00;94626.63;5069307;28;20036;-74
2023/01/19 08:37:59;;;;;;;16.55;7.80;;;;;;;-3.14;100.00;94626.41;5041524;28;20040;-74
2023/01/19 08:40:29;;;;;;;14.45;7.72;;;;;;;-3.11;100.00;94620.84;5039193;28;20033;-75
2023/01/19 08:43:00;;;;;;;18.05;8.43;;;;;;;-3.08;100.00;94625.59;5036408;28;20037;-76
2023/01/19 08:45:27;;;;;;;18.48;8.30;;;;;;;-2.98;100.00;94625.91;5047397;28;20139;-75
2023/01/19 08:47:55;;;;;;;17.30;9.18;;;;;;;-3.01;100.00;94631.50;5049994;28;20044;-75
2023/01/19 08:50:21;;;;;;;16.33;8.48;;;;;;;-2.94;100.00;94628.88;5046265;28;20124;-76
2023/01/19 08:52:47;;;;;;;17.70;8.48;;;;;;;-2.90;100.00;94631.81;5036589;28;20041;-76
2023/01/19 08:55:12;;;;;;;17.58;7.47;;;;;;;-2.88;100.00;94635.00;5041390;28;20040;-76
2023/01/19 08:57:38;;;;;;;21.85;8.80;;;;;;;-2.80;100.00;94637.34;5040678;28;20049;-76
2023/01/19 09:00:06;;;;;;;14.70;7.75;;;;;;;-2.76;100.00;94627.41;5042713;28;20045;-76
2023/01/19 09:02:33;;;;;;;12.98;7.10;;;;;;;-2.75;100.00;94624.63;5040400;28;20037;-74
2023/01/19 09:04:59;;;;;;;12.10;6.10;;;;;;;-2.62;100.00;94627.09;5044842;28;20116;-74
2023/01/19 09:07:24;;;;;;;16.20;8.45;;;;;;;-2.69;100.00;94626.34;5039476;28;20175;-74
2023/01/19 09:09:50;;;;;;;17.88;8.45;;;;;;;-2.68;100.00;94624.59;5036429;28;20044;-74
2023/01/19 09:12:15;;;;;;;19.70;7.38;;;;;;;-2.70;100.00;94632.53;5048459;28;20036;-74
2023/01/19 09:14:41;;;;;;;16.75;7.72;;;;;;;-2.50;100.00;94631.59;5040476;28;20416;-74
2023/01/19 09:17:06;;;;;;;17.25;7.50;;;;;;;-2.50;100.00;94634.16;5040697;28;20038;-75
2023/01/19 09:19:32;;;;;;;16.08;7.72;;;;;;;-2.56;100.00;94632.44;5040525;28;20033;-75
2023/01/19 09:21:58;;;;;;;14.45;7.05;;;;;;;-2.47;100.00;94631.16;5038014;28;20506;-74
2023/01/19 09:24:24;;;;;;;13.45;7.30;;;;;;;-2.47;100.00;94636.31;5039484;28;20049;-75
2023/01/19 09:26:50;;;;;;;18.50;7.57;;;;;;;-2.38;100.00;94635.06;5040838;28;20503;-74
2023/01/19 09:29:15;;;;;;;16.50;7.60;;;;;;;-2.30;100.00;94642.56;5048084;28;20034;-74
2023/01/19 09:31:42;;;;;;;15.18;7.60;;;;;;;-2.29;100.00;94638.97;5040140;28;20053;-72
2023/01/19 09:34:09;;;;;;;17.67;7.60;;;;;;;-2.25;100.00;94638.56;5043306;28;20048;-74
2023/01/19 09:36:36;;;;;;;17.30;7.55;;;;;;;-2.25;100.00;94643.72;5041496;28;20454;-73
2023/01/19 09:39:02;;;;;;;13.65;7.30;;;;;;;-2.14;100.00;94650.75;5037784;28;20414;-74
2023/01/19 09:41:32;;;;;;;13.20;6.82;;;;;;;-2.20;100.00;94641.28;5040512;28;20048;-73
2023/01/19 09:43:59;;;;;;;18.77;8.13;;;;;;;-2.06;100.00;94647.91;5035321;28;20041;-76
2023/01/19 09:46:33;;;;;;;13.68;5.68;;;;;;;-2.16;100.00;94652.75;5036916;28;20058;-76
2023/01/19 09:49:03;;;;;;;13.10;6.05;;;;;;;-2.12;100.00;94651.34;5042296;28;20502;-75
2023/01/19 09:51:35;;;;;;;18.15;7.75;;;;;;;-2.11;100.00;94652.94;5039033;28;20052;-75
2023/01/19 09:54:12;;;;;;;10.38;5.80;;;;;;;-1.88;100.00;94648.94;5045448;28;20112;-74
2023/01/19 09:56:38;;;;;;;12.75;5.95;;;;;;;-1.82;100.00;94648.13;5040579;28;20061;-80
2023/01/19 09:59:23;;;;;;;13.80;6.30;;;;;;;-1.59;100.00;94643.13;5042484;28;20127;-77
2023/01/19 10:02:06;;;;;;;16.27;7.35;;;;;;;-1.66;100.00;94647.56;5039352;28;20044;-75
2023/01/19 10:04:42;;;;;;;13.98;7.15;;;;;;;-1.41;100.00;94647.50;5045711;28;20064;-75
2023/01/19 10:07:38;;;;;;;16.30;6.90;;;;;;;-0.97;100.00;94644.81;5040855;28;20041;-75
2023/01/19 10:10:11;;;;;;;14.48;7.35;;;;;;;-0.87;100.00;94645.06;5036533;28;20052;-75
2023/01/19 10:12:42;;;;;;;18.47;7.40;;;;;;;-1.34;100.00;94638.88;5037637;28;20048;-75
2023/01/19 10:15:24;;;;;;;11.73;6.10;;;;;;;-1.42;100.00;94642.56;5033450;28;20290;-75
2023/01/19 10:18:02;;;;;;;15.05;6.38;;;;;;;-1.08;100.00;94642.94;5041106;28;20052;-75
2023/01/19 10:20:33;;;;;;;14.98;6.93;;;;;;;-1.00;100.00;94640.06;5036254;28;20044;-76
2023/01/19 10:23:03;;;;;;;17.67;7.13;;;;;;;-0.72;100.00;94646.47;5041576;28;20049;-76
2023/01/19 10:25:29;;;;;;;10.77;5.43;;;;;;;-0.93;100.00;94643.38;5043895;28;20040;-76
2023/01/19 10:27:57;;;;;;;13.40;5.95;;;;;;;-0.66;100.00;94648.19;5041805;28;20131;-75
2023/01/19 10:30:27;;;;;;;13.23;6.10;;;;;;;-0.67;100.00;94644.03;5039427;28;20535;-75
2023/01/19 10:32:53;;;;;;;12.50;6.15;;;;;;;-0.24;100.00;94643.00;5039427;28;20040;-76
2023/01/19 10:35:23;;;;;;;12.32;6.07;;;;;;;-0.67;100.00;94638.84;5036593;28;20507;-76
2023/01/19 10:37:51;;;;;;;14.00;6.28;;;;;;;-0.40;100.00;94643.66;5045471;28;20537;-72
2023/01/19 10:40:38;;;;;;;12.27;5.95;;;;;;;-0.80;100.00;94639.03;5044353;28;20041;-73
2023/01/19 10:43:49;;;;;;;12.55;5.80;;;;;;;-0.55;100.00;94650.03;5044125;28;20148;-74
2023/01/19 10:46:20;;;;;;;18.60;4.82;;;;;;;-0.32;100.00;94640.72;5037769;28;20059;-74
2023/01/19 10:48:50;;;;;;;14.27;5.68;;;;;;;0.07;100.00;94638.56;5045193;28;20044;-74
2023/01/19 10:51:16;;;;;;;11.85;5.22;;;;;;;0.51;100.00;94633.78;5037675;28;20045;-74
2023/01/19 10:54:03;;;;;;;16.05;5.93;;;;;;;0.61;100.00;94627.25;5040488;28;20040;-76
2023/01/19 10:56:33;;;;;;;11.07;5.00;;;;;;;0.17;100.00;94628.44;5038392;28;20033;-78
2023/01/19 10:59:00;;;;;;;10.25;4.70;;;;;;;0.52;100.00;94625.00;5046497;28;20040;-76
2023/01/19 11:01:27;;;;;;;12.20;5.70;;;;;;;0.73;97.74;94625.41;5044336;28;20033;-75
2023/01/19 11:03:55;;;;;;;12.63;6.07;;;;;;;1.43;100.00;94623.59;5050461;28;20498;-76
2023/01/19 11:06:28;;;;;;;14.15;5.82;;;;;;;0.76;100.00;94629.34;5049648;28;20067;-77
2023/01/19 11:09:19;;;;;;;14.02;5.07;;;;;;;0.61;97.77;94622.06;5044623;28;20037;-76
2023/01/19 11:11:48;;;;;;;11.90;5.50;;;;;;;0.67;100.00;94616.75;5038822;28;20135;-76
2023/01/19 11:14:17;;;;;;;17.33;6.28;;;;;;;0.83;96.07;94620.47;5039875;28;20041;-76
2023/01/19 11:16:48;;;;;;;14.30;6.20;;;;;;;1.19;98.46;94621.13;5044449;28;20491;-76
2023/01/19 11:19:40;;;;;;;17.10;5.47;;;;;;;0.63;91.98;94620.03;5050552;28;20056;-74
2023/01/19 11:22:29;;;;;;;12.30;5.88;;;;;;;0.19;100.00;94619.63;5034954;28;20057;-73
2023/01/19 11:25:01;;;;;;;14.23;5.50;;;;;;;-0.01;98.37;94623.34;5051894;28;20048;-76
2023/01/19 11:27:28;;;;;;;9.82;4.70;;;;;;;0.66;99.12;94620.38;5051275;28;20057;-76
2023/01/19 11:30:04;;;;;;;13.55;4.25;;;;;;;0.63;96.72;94614.84;5047628;28;20486;-75
2023/01/19 11:32:31;;;;;;;7.93;3.63;;;;;;;0.04;100.00;94618.28;5048642;28;20095;-76